sensor_id;sensor_type;location;lat;lon;timestamp;P1;durP1;ratioP1;P2;durP2;ratioP2
39814;SDS011;25495;45.948;4.568;2022-12-07T00:01:12;18.40;;;10.00;;
39814;SDS011;25495;45.948;4.568;2022-12-07T00:03:43;17.92;;;9.48;;
39814;SDS011;25495;45.948;4.568;2022-12-07T00:06:10;18.95;;;9.82;;
39814;SDS011;25495;45.948;4.568;2022-12-07T00:08:38;18.77;;;9.77;;
39814;SDS011;25495;45.948;4.568;2022-12-07T00:11:11;19.52;;;10.45;;
39814;SDS011;25495;45.948;4.568;2022-12-07T00:13:40;21.92;;;9.90;;
39814;SDS011;25495;45.948;4.568;2022-12-07T00:16:10;17.90;;;9.32;;
39814;SDS011;25495;45.948;4.568;2022-12-07T00:18:38;18.42;;;8.50;;
39814;SDS011;25495;45.948;4.568;2022-12-07T00:21:05;22.67;;;10.32;;
39814;SDS011;25495;45.948;4.568;2022-12-07T00:23:33;18.08;;;9.20;;
39814;SDS011;25495;45.948;4.568;2022-12-07T00:26:05;17.85;;;9.55;;
39814;SDS011;25495;45.948;4.568;2022-12-07T00:28:32;18.23;;;9.55;;
39814;SDS011;25495;45.948;4.568;2022-12-07T00:31:08;23.75;;;11.20;;
39814;SDS011;25495;45.948;4.568;2022-12-07T00:33:35;26.88;;;11.70;;
39814;SDS011;25495;45.948;4.568;2022-12-07T00:36:03;21.08;;;11.35;;
39814;SDS011;25495;45.948;4.568;2022-12-07T00:38:33;20.20;;;10.50;;
39814;SDS011;25495;45.948;4.568;2022-12-07T00:41:02;18.58;;;10.20;;
39814;SDS011;25495;45.948;4.568;2022-12-07T00:43:29;17.42;;;9.05;;
39814;SDS011;25495;45.948;4.568;2022-12-07T00:45:56;16.35;;;10.02;;
39814;SDS011;25495;45.948;4.568;2022-12-07T00:48:22;16.52;;;8.57;;
39814;SDS011;25495;45.948;4.568;2022-12-07T00:50:48;23.88;;;10.02;;
39814;SDS011;25495;45.948;4.568;2022-12-07T00:53:14;19.00;;;9.27;;
39814;SDS011;25495;45.948;4.568;2022-12-07T00:55:41;16.58;;;8.60;;
39814;SDS011;25495;45.948;4.568;2022-12-07T00:58:07;26.85;;;11.68;;
39814;SDS011;25495;45.948;4.568;2022-12-07T01:00:33;21.92;;;10.48;;
39814;SDS011;25495;45.948;4.568;2022-12-07T01:03:01;23.98;;;11.02;;
39814;SDS011;25495;45.948;4.568;2022-12-07T01:05:28;22.50;;;10.88;;
39814;SDS011;25495;45.948;4.568;2022-12-07T01:07:54;20.25;;;10.27;;
39814;SDS011;25495;45.948;4.568;2022-12-07T01:10:20;23.02;;;10.48;;
39814;SDS011;25495;45.948;4.568;2022-12-07T01:12:46;18.85;;;9.82;;
39814;SDS011;25495;45.948;4.568;2022-12-07T01:15:11;17.02;;;8.32;;
39814;SDS011;25495;45.948;4.568;2022-12-07T01:17:37;18.75;;;9.27;;
39814;SDS011;25495;45.948;4.568;2022-12-07T01:20:03;17.88;;;9.02;;
39814;SDS011;25495;45.948;4.568;2022-12-07T01:22:29;15.35;;;8.82;;
39814;SDS011;25495;45.948;4.568;2022-12-07T01:24:55;15.85;;;9.07;;
39814;SDS011;25495;45.948;4.568;2022-12-07T01:27:21;17.42;;;8.98;;
39814;SDS011;25495;45.948;4.568;2022-12-07T01:29:46;15.93;;;9.23;;
39814;SDS011;25495;45.948;4.568;2022-12-07T01:32:12;16.73;;;9.27;;
39814;SDS011;25495;45.948;4.568;2022-12-07T01:34:38;20.73;;;10.07;;
39814;SDS011;25495;45.948;4.568;2022-12-07T01:37:04;16.60;;;9.52;;
39814;SDS011;25495;45.948;4.568;2022-12-07T01:39:29;17.30;;;8.85;;
39814;SDS011;25495;45.948;4.568;2022-12-07T01:41:55;18.05;;;9.80;;
39814;SDS011;25495;45.948;4.568;2022-12-07T01:44:28;17.45;;;9.32;;
39814;SDS011;25495;45.948;4.568;2022-12-07T01:46:57;19.10;;;10.40;;
39814;SDS011;25495;45.948;4.568;2022-12-07T01:49:33;17.30;;;9.35;;
39814;SDS011;25495;45.948;4.568;2022-12-07T01:52:10;19.20;;;10.68;;
39814;SDS011;25495;45.948;4.568;2022-12-07T01:54:42;21.38;;;10.27;;
39814;SDS011;25495;45.948;4.568;2022-12-07T01:57:09;21.38;;;10.75;;
39814;SDS011;25495;45.948;4.568;2022-12-07T01:59:36;19.00;;;9.68;;
39814;SDS011;25495;45.948;4.568;2022-12-07T02:02:04;21.95;;;10.95;;
39814;SDS011;25495;45.948;4.568;2022-12-07T02:04:37;22.80;;;10.02;;
39814;SDS011;25495;45.948;4.568;2022-12-07T02:07:03;18.92;;;10.10;;
39814;SDS011;25495;45.948;4.568;2022-12-07T02:09:30;16.98;;;9.70;;
39814;SDS011;25495;45.948;4.568;2022-12-07T02:11:56;21.38;;;9.88;;
39814;SDS011;25495;45.948;4.568;2022-12-07T02:14:22;17.67;;;9.70;;
39814;SDS011;25495;45.948;4.568;2022-12-07T02:17:01;16.70;;;9.00;;
39814;SDS011;25495;45.948;4.568;2022-12-07T02:25:10;19.75;;;9.60;;
39814;SDS011;25495;45.948;4.568;2022-12-07T02:27:52;23.05;;;11.43;;
39814;SDS011;25495;45.948;4.568;2022-12-07T02:30:31;26.20;;;11.30;;
39814;SDS011;25495;45.948;4.568;2022-12-07T02:33:06;23.75;;;11.10;;
39814;SDS011;25495;45.948;4.568;2022-12-07T02:38:43;18.23;;;9.52;;
39814;SDS011;25495;45.948;4.568;2022-12-07T02:41:16;19.73;;;9.90;;
39814;SDS011;25495;45.948;4.568;2022-12-07T02:43:59;22.40;;;11.35;;
39814;SDS011;25495;45.948;4.568;2022-12-07T02:46:33;22.45;;;10.60;;
39814;SDS011;25495;45.948;4.568;2022-12-07T02:49:07;18.45;;;9.88;;
39814;SDS011;25495;45.948;4.568;2022-12-07T02:51:38;20.58;;;10.73;;
39814;SDS011;25495;45.948;4.568;2022-12-07T02:54:16;19.23;;;10.88;;
39814;SDS011;25495;45.948;4.568;2022-12-07T03:01:53;21.23;;;11.52;;
39814;SDS011;25495;45.948;4.568;2022-12-07T03:18:59;17.08;;;7.78;;
39814;SDS011;25495;45.948;4.568;2022-12-07T03:21:37;12.18;;;6.22;;
39814;SDS011;25495;45.948;4.568;2022-12-07T03:24:14;11.10;;;5.85;;
39814;SDS011;25495;45.948;4.568;2022-12-07T03:26:47;13.05;;;6.53;;
39814;SDS011;25495;45.948;4.568;2022-12-07T03:29:23;11.93;;;6.32;;
39814;SDS011;25495;45.948;4.568;2022-12-07T03:32:01;9.73;;;5.93;;
39814;SDS011;25495;45.948;4.568;2022-12-07T03:34:46;11.13;;;6.65;;
39814;SDS011;25495;45.948;4.568;2022-12-07T03:37:34;9.75;;;5.50;;
39814;SDS011;25495;45.948;4.568;2022-12-07T03:42:57;12.88;;;6.40;;
39814;SDS011;25495;45.948;4.568;2022-12-07T03:45:30;9.52;;;5.18;;
39814;SDS011;25495;45.948;4.568;2022-12-07T03:48:46;11.90;;;5.65;;
39814;SDS011;25495;45.948;4.568;2022-12-07T03:51:14;8.57;;;4.82;;
39814;SDS011;25495;45.948;4.568;2022-12-07T03:53:54;7.85;;;4.60;;
39814;SDS011;25495;45.948;4.568;2022-12-07T03:56:25;10.98;;;4.90;;
39814;SDS011;25495;45.948;4.568;2022-12-07T03:58:53;7.38;;;4.50;;
39814;SDS011;25495;45.948;4.568;2022-12-07T04:01:19;10.35;;;5.80;;
39814;SDS011;25495;45.948;4.568;2022-12-07T04:03:45;10.50;;;5.30;;
39814;SDS011;25495;45.948;4.568;2022-12-07T04:06:11;10.57;;;5.35;;
39814;SDS011;25495;45.948;4.568;2022-12-07T04:08:37;10.27;;;5.35;;
39814;SDS011;25495;45.948;4.568;2022-12-07T04:11:02;11.02;;;5.90;;
39814;SDS011;25495;45.948;4.568;2022-12-07T04:13:28;10.43;;;5.40;;
39814;SDS011;25495;45.948;4.568;2022-12-07T04:15:54;10.85;;;5.93;;
39814;SDS011;25495;45.948;4.568;2022-12-07T04:18:20;13.23;;;6.10;;
39814;SDS011;25495;45.948;4.568;2022-12-07T04:20:45;10.27;;;5.97;;
39814;SDS011;25495;45.948;4.568;2022-12-07T04:23:11;9.95;;;5.63;;
39814;SDS011;25495;45.948;4.568;2022-12-07T04:25:37;8.98;;;5.05;;
39814;SDS011;25495;45.948;4.568;2022-12-07T04:28:03;9.98;;;5.75;;
39814;SDS011;25495;45.948;4.568;2022-12-07T04:30:29;11.30;;;5.68;;
39814;SDS011;25495;45.948;4.568;2022-12-07T04:32:55;8.70;;;4.57;;
39814;SDS011;25495;45.948;4.568;2022-12-07T04:35:21;7.53;;;4.40;;
39814;SDS011;25495;45.948;4.568;2022-12-07T04:37:46;8.00;;;4.32;;
39814;SDS011;25495;45.948;4.568;2022-12-07T04:40:12;7.88;;;4.35;;
39814;SDS011;25495;45.948;4.568;2022-12-07T04:42:39;7.57;;;3.83;;
39814;SDS011;25495;45.948;4.568;2022-12-07T04:45:05;9.45;;;3.88;;
39814;SDS011;25495;45.948;4.568;2022-12-07T04:47:31;6.13;;;3.47;;
39814;SDS011;25495;45.948;4.568;2022-12-07T04:49:57;5.75;;;3.38;;
39814;SDS011;25495;45.948;4.568;2022-12-07T04:52:23;7.53;;;3.97;;
39814;SDS011;25495;45.948;4.568;2022-12-07T04:54:48;5.43;;;3.40;;
39814;SDS011;25495;45.948;4.568;2022-12-07T04:57:14;4.93;;;3.00;;
39814;SDS011;25495;45.948;4.568;2022-12-07T04:59:40;6.28;;;3.40;;
39814;SDS011;25495;45.948;4.568;2022-12-07T05:02:05;6.10;;;3.70;;
39814;SDS011;25495;45.948;4.568;2022-12-07T05:04:31;7.53;;;4.25;;
39814;SDS011;25495;45.948;4.568;2022-12-07T05:06:57;10.75;;;5.35;;
39814;SDS011;25495;45.948;4.568;2022-12-07T05:09:23;8.30;;;4.90;;
39814;SDS011;25495;45.948;4.568;2022-12-07T05:11:48;13.38;;;6.47;;
39814;SDS011;25495;45.948;4.568;2022-12-07T05:14:20;10.82;;;6.10;;
39814;SDS011;25495;45.948;4.568;2022-12-07T05:16:47;12.10;;;6.88;;
39814;SDS011;25495;45.948;4.568;2022-12-07T05:19:14;10.15;;;5.45;;
39814;SDS011;25495;45.948;4.568;2022-12-07T05:21:40;9.40;;;5.65;;
39814;SDS011;25495;45.948;4.568;2022-12-07T05:24:07;11.05;;;6.55;;
39814;SDS011;25495;45.948;4.568;2022-12-07T05:26:34;12.68;;;6.93;;
39814;SDS011;25495;45.948;4.568;2022-12-07T05:29:00;13.13;;;6.95;;
39814;SDS011;25495;45.948;4.568;2022-12-07T05:31:26;14.23;;;6.13;;
39814;SDS011;25495;45.948;4.568;2022-12-07T05:33:53;16.13;;;5.85;;
39814;SDS011;25495;45.948;4.568;2022-12-07T05:36:19;9.75;;;4.97;;
39814;SDS011;25495;45.948;4.568;2022-12-07T05:38:45;7.28;;;4.45;;
39814;SDS011;25495;45.948;4.568;2022-12-07T05:41:12;7.20;;;4.40;;
39814;SDS011;25495;45.948;4.568;2022-12-07T05:43:59;8.43;;;4.70;;
39814;SDS011;25495;45.948;4.568;2022-12-07T05:46:25;7.07;;;4.25;;
39814;SDS011;25495;45.948;4.568;2022-12-07T05:48:51;8.57;;;4.10;;
39814;SDS011;25495;45.948;4.568;2022-12-07T05:51:17;8.70;;;4.28;;
39814;SDS011;25495;45.948;4.568;2022-12-07T05:53:44;6.25;;;3.83;;
39814;SDS011;25495;45.948;4.568;2022-12-07T05:56:10;7.70;;;3.85;;
39814;SDS011;25495;45.948;4.568;2022-12-07T05:58:35;6.00;;;3.63;;
39814;SDS011;25495;45.948;4.568;2022-12-07T06:01:20;5.00;;;3.22;;
39814;SDS011;25495;45.948;4.568;2022-12-07T06:03:45;6.60;;;3.38;;
39814;SDS011;25495;45.948;4.568;2022-12-07T06:06:11;6.55;;;3.50;;
39814;SDS011;25495;45.948;4.568;2022-12-07T06:08:37;5.80;;;3.05;;
39814;SDS011;25495;45.948;4.568;2022-12-07T06:11:02;4.75;;;2.88;;
39814;SDS011;25495;45.948;4.568;2022-12-07T06:13:46;5.90;;;3.00;;
39814;SDS011;25495;45.948;4.568;2022-12-07T06:16:12;5.18;;;2.88;;
39814;SDS011;25495;45.948;4.568;2022-12-07T06:18:38;5.65;;;3.55;;
39814;SDS011;25495;45.948;4.568;2022-12-07T06:21:04;5.57;;;2.97;;
39814;SDS011;25495;45.948;4.568;2022-12-07T06:23:29;4.95;;;2.92;;
39814;SDS011;25495;45.948;4.568;2022-12-07T06:25:55;4.93;;;2.70;;
39814;SDS011;25495;45.948;4.568;2022-12-07T06:28:21;5.78;;;3.20;;
39814;SDS011;25495;45.948;4.568;2022-12-07T06:30:47;6.32;;;3.03;;
39814;SDS011;25495;45.948;4.568;2022-12-07T06:33:12;5.00;;;3.03;;
39814;SDS011;25495;45.948;4.568;2022-12-07T06:35:38;6.53;;;3.13;;
39814;SDS011;25495;45.948;4.568;2022-12-07T06:38:04;7.07;;;3.95;;
39814;SDS011;25495;45.948;4.568;2022-12-07T06:40:29;4.97;;;2.63;;
39814;SDS011;25495;45.948;4.568;2022-12-07T06:42:55;7.45;;;3.10;;
39814;SDS011;25495;45.948;4.568;2022-12-07T06:45:21;6.32;;;3.22;;
39814;SDS011;25495;45.948;4.568;2022-12-07T06:47:46;4.15;;;2.50;;
39814;SDS011;25495;45.948;4.568;2022-12-07T06:50:12;5.00;;;2.85;;
39814;SDS011;25495;45.948;4.568;2022-12-07T06:52:38;4.95;;;2.28;;
39814;SDS011;25495;45.948;4.568;2022-12-07T06:55:04;4.93;;;2.85;;
39814;SDS011;25495;45.948;4.568;2022-12-07T06:57:30;5.40;;;3.05;;
39814;SDS011;25495;45.948;4.568;2022-12-07T06:59:56;5.57;;;3.25;;
39814;SDS011;25495;45.948;4.568;2022-12-07T07:02:21;6.03;;;3.17;;
39814;SDS011;25495;45.948;4.568;2022-12-07T07:04:47;5.32;;;2.97;;
39814;SDS011;25495;45.948;4.568;2022-12-07T07:07:13;6.10;;;3.58;;
39814;SDS011;25495;45.948;4.568;2022-12-07T07:09:38;6.93;;;3.60;;
39814;SDS011;25495;45.948;4.568;2022-12-07T07:12:04;8.70;;;3.80;;
39814;SDS011;25495;45.948;4.568;2022-12-07T07:14:30;6.32;;;3.40;;
39814;SDS011;25495;45.948;4.568;2022-12-07T07:16:55;4.43;;;2.90;;
39814;SDS011;25495;45.948;4.568;2022-12-07T07:19:21;6.53;;;3.17;;
39814;SDS011;25495;45.948;4.568;2022-12-07T07:21:47;5.78;;;3.17;;
39814;SDS011;25495;45.948;4.568;2022-12-07T07:24:13;5.30;;;2.80;;
39814;SDS011;25495;45.948;4.568;2022-12-07T07:26:38;4.88;;;3.05;;
39814;SDS011;25495;45.948;4.568;2022-12-07T07:29:04;6.85;;;3.42;;
39814;SDS011;25495;45.948;4.568;2022-12-07T07:31:30;4.85;;;3.40;;
39814;SDS011;25495;45.948;4.568;2022-12-07T07:33:56;6.75;;;3.00;;
39814;SDS011;25495;45.948;4.568;2022-12-07T07:36:21;5.53;;;3.22;;
39814;SDS011;25495;45.948;4.568;2022-12-07T07:38:47;5.00;;;2.90;;
39814;SDS011;25495;45.948;4.568;2022-12-07T07:41:13;6.78;;;3.20;;
39814;SDS011;25495;45.948;4.568;2022-12-07T07:43:38;7.28;;;3.05;;
39814;SDS011;25495;45.948;4.568;2022-12-07T07:46:04;5.78;;;2.90;;
39814;SDS011;25495;45.948;4.568;2022-12-07T07:48:30;8.85;;;4.53;;
39814;SDS011;25495;45.948;4.568;2022-12-07T07:50:56;6.63;;;3.35;;
39814;SDS011;25495;45.948;4.568;2022-12-07T07:53:22;8.07;;;4.38;;
39814;SDS011;25495;45.948;4.568;2022-12-07T07:55:54;10.45;;;5.97;;
39814;SDS011;25495;45.948;4.568;2022-12-07T07:58:20;13.02;;;7.38;;
39814;SDS011;25495;45.948;4.568;2022-12-07T08:00:46;9.25;;;5.28;;
39814;SDS011;25495;45.948;4.568;2022-12-07T08:03:12;6.85;;;3.83;;
39814;SDS011;25495;45.948;4.568;2022-12-07T08:05:38;5.40;;;3.42;;
39814;SDS011;25495;45.948;4.568;2022-12-07T08:08:03;7.18;;;4.28;;
39814;SDS011;25495;45.948;4.568;2022-12-07T08:10:29;7.30;;;4.55;;
39814;SDS011;25495;45.948;4.568;2022-12-07T08:12:57;11.00;;;6.05;;
39814;SDS011;25495;45.948;4.568;2022-12-07T08:15:45;13.40;;;5.55;;
39814;SDS011;25495;45.948;4.568;2022-12-07T08:18:12;12.15;;;6.22;;
39814;SDS011;25495;45.948;4.568;2022-12-07T08:20:39;10.88;;;5.32;;
39814;SDS011;25495;45.948;4.568;2022-12-07T08:23:06;9.48;;;4.45;;
39814;SDS011;25495;45.948;4.568;2022-12-07T08:25:32;8.15;;;4.47;;
39814;SDS011;25495;45.948;4.568;2022-12-07T08:27:59;11.55;;;5.47;;
39814;SDS011;25495;45.948;4.568;2022-12-07T08:30:25;11.15;;;6.22;;
39814;SDS011;25495;45.948;4.568;2022-12-07T08:32:52;14.52;;;6.70;;
39814;SDS011;25495;45.948;4.568;2022-12-07T08:35:18;16.77;;;7.38;;
39814;SDS011;25495;45.948;4.568;2022-12-07T08:37:44;13.27;;;6.75;;
39814;SDS011;25495;45.948;4.568;2022-12-07T08:40:11;18.05;;;7.63;;
39814;SDS011;25495;45.948;4.568;2022-12-07T08:42:50;15.60;;;7.70;;
39814;SDS011;25495;45.948;4.568;2022-12-07T08:45:19;16.58;;;8.27;;
39814;SDS011;25495;45.948;4.568;2022-12-07T08:47:55;16.85;;;8.55;;
39814;SDS011;25495;45.948;4.568;2022-12-07T08:50:28;16.42;;;8.55;;
39814;SDS011;25495;45.948;4.568;2022-12-07T08:52:55;14.35;;;7.72;;
39814;SDS011;25495;45.948;4.568;2022-12-07T08:55:23;14.70;;;7.72;;
39814;SDS011;25495;45.948;4.568;2022-12-07T08:57:49;17.40;;;8.88;;
39814;SDS011;25495;45.948;4.568;2022-12-07T09:00:16;16.17;;;8.73;;
39814;SDS011;25495;45.948;4.568;2022-12-07T09:02:43;16.38;;;7.97;;
39814;SDS011;25495;45.948;4.568;2022-12-07T09:05:09;14.75;;;8.13;;
39814;SDS011;25495;45.948;4.568;2022-12-07T09:07:35;19.55;;;9.10;;
39814;SDS011;25495;45.948;4.568;2022-12-07T09:10:02;15.88;;;8.48;;
39814;SDS011;25495;45.948;4.568;2022-12-07T09:12:29;23.08;;;12.35;;
39814;SDS011;25495;45.948;4.568;2022-12-07T09:14:55;28.98;;;13.73;;
39814;SDS011;25495;45.948;4.568;2022-12-07T09:17:21;16.65;;;8.02;;
39814;SDS011;25495;45.948;4.568;2022-12-07T09:19:47;15.00;;;8.35;;
39814;SDS011;25495;45.948;4.568;2022-12-07T09:22:12;13.98;;;7.97;;
39814;SDS011;25495;45.948;4.568;2022-12-07T09:24:38;15.02;;;7.80;;
39814;SDS011;25495;45.948;4.568;2022-12-07T09:27:04;14.82;;;8.32;;
39814;SDS011;25495;45.948;4.568;2022-12-07T09:29:30;16.33;;;8.82;;
39814;SDS011;25495;45.948;4.568;2022-12-07T09:31:56;18.90;;;8.80;;
39814;SDS011;25495;45.948;4.568;2022-12-07T09:34:22;18.58;;;9.88;;
39814;SDS011;25495;45.948;4.568;2022-12-07T09:36:48;22.23;;;11.55;;
39814;SDS011;25495;45.948;4.568;2022-12-07T09:39:14;14.77;;;8.27;;
39814;SDS011;25495;45.948;4.568;2022-12-07T09:41:40;15.25;;;8.20;;
39814;SDS011;25495;45.948;4.568;2022-12-07T09:44:12;15.45;;;7.70;;
39814;SDS011;25495;45.948;4.568;2022-12-07T09:46:40;15.43;;;8.38;;
39814;SDS011;25495;45.948;4.568;2022-12-07T09:49:27;13.27;;;7.28;;
39814;SDS011;25495;45.948;4.568;2022-12-07T09:54:35;15.32;;;7.65;;
39814;SDS011;25495;45.948;4.568;2022-12-07T09:57:05;15.52;;;7.53;;
39814;SDS011;25495;45.948;4.568;2022-12-07T09:59:33;18.15;;;8.20;;
39814;SDS011;25495;45.948;4.568;2022-12-07T10:02:04;17.33;;;9.02;;
39814;SDS011;25495;45.948;4.568;2022-12-07T10:04:51;18.52;;;8.52;;
39814;SDS011;25495;45.948;4.568;2022-12-07T10:07:16;13.25;;;6.82;;
39814;SDS011;25495;45.948;4.568;2022-12-07T10:09:42;19.08;;;8.98;;
39814;SDS011;25495;45.948;4.568;2022-12-07T10:12:13;15.27;;;6.97;;
39814;SDS011;25495;45.948;4.568;2022-12-07T10:17:38;15.32;;;7.70;;
39814;SDS011;25495;45.948;4.568;2022-12-07T10:22:54;13.77;;;7.20;;
39814;SDS011;25495;45.948;4.568;2022-12-07T10:25:29;14.55;;;8.20;;
39814;SDS011;25495;45.948;4.568;2022-12-07T10:36:24;14.75;;;6.95;;
39814;SDS011;25495;45.948;4.568;2022-12-07T10:41:52;15.52;;;7.13;;
39814;SDS011;25495;45.948;4.568;2022-12-07T10:44:25;13.68;;;7.65;;
39814;SDS011;25495;45.948;4.568;2022-12-07T10:49:54;10.35;;;5.63;;
39814;SDS011;25495;45.948;4.568;2022-12-07T10:52:33;10.88;;;5.30;;
39814;SDS011;25495;45.948;4.568;2022-12-07T10:58:00;8.18;;;4.55;;
39814;SDS011;25495;45.948;4.568;2022-12-07T11:06:00;13.60;;;6.70;;
39814;SDS011;25495;45.948;4.568;2022-12-07T11:17:05;9.95;;;5.20;;
39814;SDS011;25495;45.948;4.568;2022-12-07T11:20:01;10.95;;;5.00;;
39814;SDS011;25495;45.948;4.568;2022-12-07T11:22:40;7.88;;;4.57;;
39814;SDS011;25495;45.948;4.568;2022-12-07T11:33:29;11.10;;;5.18;;
39814;SDS011;25495;45.948;4.568;2022-12-07T11:38:54;12.18;;;6.05;;
39814;SDS011;25495;45.948;4.568;2022-12-07T11:41:33;15.60;;;7.65;;
39814;SDS011;25495;45.948;4.568;2022-12-07T11:52:18;16.90;;;8.02;;
39814;SDS011;25495;45.948;4.568;2022-12-07T11:55:24;16.60;;;8.70;;
39814;SDS011;25495;45.948;4.568;2022-12-07T12:06:40;15.40;;;7.72;;
39814;SDS011;25495;45.948;4.568;2022-12-07T12:12:10;16.90;;;8.23;;
39814;SDS011;25495;45.948;4.568;2022-12-07T12:20:57;17.35;;;8.45;;
39814;SDS011;25495;45.948;4.568;2022-12-07T12:23:07;13.15;;;6.90;;
39814;SDS011;25495;45.948;4.568;2022-12-07T12:25:41;19.40;;;9.02;;
39814;SDS011;25495;45.948;4.568;2022-12-07T12:28:20;15.57;;;7.20;;
39814;SDS011;25495;45.948;4.568;2022-12-07T12:31:06;15.35;;;7.47;;
39814;SDS011;25495;45.948;4.568;2022-12-07T12:33:52;15.25;;;7.68;;
39814;SDS011;25495;45.948;4.568;2022-12-07T12:47:03;14.27;;;7.10;;
39814;SDS011;25495;45.948;4.568;2022-12-07T12:56:20;17.50;;;8.10;;
39814;SDS011;25495;45.948;4.568;2022-12-07T12:58:37;13.77;;;7.38;;
39814;SDS011;25495;45.948;4.568;2022-12-07T13:04:03;14.25;;;7.38;;
39814;SDS011;25495;45.948;4.568;2022-12-07T13:07:03;13.98;;;7.22;;
39814;SDS011;25495;45.948;4.568;2022-12-07T13:09:32;13.98;;;6.50;;
39814;SDS011;25495;45.948;4.568;2022-12-07T13:12:05;15.18;;;6.88;;
39814;SDS011;25495;45.948;4.568;2022-12-07T13:17:11;14.75;;;7.63;;
39814;SDS011;25495;45.948;4.568;2022-12-07T13:19:59;14.70;;;7.72;;
39814;SDS011;25495;45.948;4.568;2022-12-07T13:27:44;15.00;;;7.70;;
39814;SDS011;25495;45.948;4.568;2022-12-07T13:30:17;13.32;;;7.22;;
39814;SDS011;25495;45.948;4.568;2022-12-07T13:32:55;19.90;;;8.95;;
39814;SDS011;25495;45.948;4.568;2022-12-07T13:35:41;11.95;;;6.53;;
39814;SDS011;25495;45.948;4.568;2022-12-07T13:38:16;14.25;;;7.82;;
39814;SDS011;25495;45.948;4.568;2022-12-07T13:40:59;12.90;;;7.25;;
39814;SDS011;25495;45.948;4.568;2022-12-07T13:43:29;13.52;;;7.20;;
39814;SDS011;25495;45.948;4.568;2022-12-07T13:45:56;14.73;;;7.57;;
39814;SDS011;25495;45.948;4.568;2022-12-07T13:48:27;14.02;;;7.15;;
39814;SDS011;25495;45.948;4.568;2022-12-07T13:51:02;13.75;;;6.90;;
39814;SDS011;25495;45.948;4.568;2022-12-07T13:53:29;13.45;;;7.45;;
39814;SDS011;25495;45.948;4.568;2022-12-07T13:55:58;12.82;;;6.95;;
39814;SDS011;25495;45.948;4.568;2022-12-07T13:58:26;11.50;;;5.72;;
39814;SDS011;25495;45.948;4.568;2022-12-07T14:00:58;12.27;;;7.05;;
39814;SDS011;25495;45.948;4.568;2022-12-07T14:03:27;11.85;;;6.55;;
39814;SDS011;25495;45.948;4.568;2022-12-07T14:06:05;12.50;;;6.78;;
39814;SDS011;25495;45.948;4.568;2022-12-07T14:08:43;16.42;;;7.68;;
39814;SDS011;25495;45.948;4.568;2022-12-07T14:11:15;13.80;;;7.95;;
39814;SDS011;25495;45.948;4.568;2022-12-07T14:13:45;13.57;;;6.70;;
39814;SDS011;25495;45.948;4.568;2022-12-07T14:16:27;10.70;;;5.88;;
39814;SDS011;25495;45.948;4.568;2022-12-07T14:18:58;10.00;;;6.00;;
39814;SDS011;25495;45.948;4.568;2022-12-07T14:21:29;13.30;;;6.97;;
39814;SDS011;25495;45.948;4.568;2022-12-07T14:26:43;9.85;;;5.82;;
39814;SDS011;25495;45.948;4.568;2022-12-07T14:31:53;11.35;;;6.40;;
39814;SDS011;25495;45.948;4.568;2022-12-07T14:34:20;11.80;;;6.05;;
39814;SDS011;25495;45.948;4.568;2022-12-07T14:36:50;11.02;;;6.00;;
39814;SDS011;25495;45.948;4.568;2022-12-07T14:39:16;14.05;;;5.68;;
39814;SDS011;25495;45.948;4.568;2022-12-07T14:41:42;10.93;;;6.63;;
39814;SDS011;25495;45.948;4.568;2022-12-07T14:44:17;11.30;;;6.00;;
39814;SDS011;25495;45.948;4.568;2022-12-07T14:46:47;10.30;;;6.13;;
39814;SDS011;25495;45.948;4.568;2022-12-07T14:49:15;12.10;;;6.13;;
39814;SDS011;25495;45.948;4.568;2022-12-07T14:51:42;10.05;;;5.60;;
39814;SDS011;25495;45.948;4.568;2022-12-07T14:54:14;11.55;;;5.60;;
39814;SDS011;25495;45.948;4.568;2022-12-07T14:56:43;13.75;;;6.18;;
39814;SDS011;25495;45.948;4.568;2022-12-07T14:59:11;11.68;;;6.10;;
39814;SDS011;25495;45.948;4.568;2022-12-07T15:01:37;11.27;;;5.50;;
39814;SDS011;25495;45.948;4.568;2022-12-07T15:04:03;10.27;;;5.85;;
39814;SDS011;25495;45.948;4.568;2022-12-07T15:06:30;12.57;;;6.43;;
39814;SDS011;25495;45.948;4.568;2022-12-07T15:08:56;11.40;;;5.93;;
39814;SDS011;25495;45.948;4.568;2022-12-07T15:11:23;12.15;;;6.40;;
39814;SDS011;25495;45.948;4.568;2022-12-07T15:13:50;11.02;;;5.78;;
39814;SDS011;25495;45.948;4.568;2022-12-07T15:16:37;11.18;;;5.70;;
39814;SDS011;25495;45.948;4.568;2022-12-07T15:19:14;11.65;;;6.10;;
39814;SDS011;25495;45.948;4.568;2022-12-07T15:21:48;12.25;;;6.63;;
39814;SDS011;25495;45.948;4.568;2022-12-07T15:24:14;11.63;;;5.65;;
39814;SDS011;25495;45.948;4.568;2022-12-07T15:26:41;16.52;;;7.22;;
39814;SDS011;25495;45.948;4.568;2022-12-07T15:29:08;15.93;;;7.13;;
39814;SDS011;25495;45.948;4.568;2022-12-07T15:31:35;12.35;;;6.88;;
39814;SDS011;25495;45.948;4.568;2022-12-07T15:34:02;13.18;;;7.32;;
39814;SDS011;25495;45.948;4.568;2022-12-07T15:36:30;10.95;;;6.00;;
39814;SDS011;25495;45.948;4.568;2022-12-07T15:38:57;11.55;;;6.03;;
39814;SDS011;25495;45.948;4.568;2022-12-07T15:41:23;15.55;;;7.45;;
39814;SDS011;25495;45.948;4.568;2022-12-07T15:43:49;15.05;;;8.23;;
39814;SDS011;25495;45.948;4.568;2022-12-07T15:46:36;14.88;;;7.80;;
39814;SDS011;25495;45.948;4.568;2022-12-07T15:49:04;11.75;;;6.95;;
39814;SDS011;25495;45.948;4.568;2022-12-07T15:51:34;10.90;;;6.13;;
39814;SDS011;25495;45.948;4.568;2022-12-07T15:54:00;10.88;;;6.03;;
39814;SDS011;25495;45.948;4.568;2022-12-07T15:56:27;12.13;;;5.93;;
39814;SDS011;25495;45.948;4.568;2022-12-07T15:58:53;9.88;;;5.93;;
39814;SDS011;25495;45.948;4.568;2022-12-07T16:01:21;12.57;;;6.47;;
39814;SDS011;25495;45.948;4.568;2022-12-07T16:03:47;10.48;;;5.88;;
39814;SDS011;25495;45.948;4.568;2022-12-07T16:06:15;12.05;;;6.78;;
39814;SDS011;25495;45.948;4.568;2022-12-07T16:08:43;9.77;;;5.53;;
39814;SDS011;25495;45.948;4.568;2022-12-07T16:11:09;12.77;;;6.38;;
39814;SDS011;25495;45.948;4.568;2022-12-07T16:13:35;11.32;;;6.22;;
39814;SDS011;25495;45.948;4.568;2022-12-07T16:16:04;10.43;;;5.70;;
39814;SDS011;25495;45.948;4.568;2022-12-07T16:18:32;12.35;;;6.13;;
39814;SDS011;25495;45.948;4.568;2022-12-07T16:20:58;9.88;;;5.05;;
39814;SDS011;25495;45.948;4.568;2022-12-07T16:23:24;10.20;;;5.90;;
39814;SDS011;25495;45.948;4.568;2022-12-07T16:25:50;9.52;;;5.20;;
39814;SDS011;25495;45.948;4.568;2022-12-07T16:28:15;11.15;;;5.68;;
39814;SDS011;25495;45.948;4.568;2022-12-07T16:30:41;11.98;;;5.50;;
39814;SDS011;25495;45.948;4.568;2022-12-07T16:33:07;9.48;;;5.45;;
39814;SDS011;25495;45.948;4.568;2022-12-07T16:35:32;12.00;;;5.82;;
39814;SDS011;25495;45.948;4.568;2022-12-07T16:37:58;11.38;;;5.78;;
39814;SDS011;25495;45.948;4.568;2022-12-07T16:40:24;9.65;;;5.18;;
39814;SDS011;25495;45.948;4.568;2022-12-07T16:42:50;14.60;;;6.38;;
39814;SDS011;25495;45.948;4.568;2022-12-07T16:45:15;12.60;;;6.20;;
39814;SDS011;25495;45.948;4.568;2022-12-07T16:47:41;12.05;;;5.97;;
39814;SDS011;25495;45.948;4.568;2022-12-07T16:50:07;10.45;;;5.45;;
39814;SDS011;25495;45.948;4.568;2022-12-07T16:52:33;9.73;;;5.40;;
39814;SDS011;25495;45.948;4.568;2022-12-07T16:54:59;11.02;;;5.80;;
39814;SDS011;25495;45.948;4.568;2022-12-07T16:57:25;9.60;;;5.53;;
39814;SDS011;25495;45.948;4.568;2022-12-07T16:59:51;11.40;;;5.93;;
39814;SDS011;25495;45.948;4.568;2022-12-07T17:02:17;11.43;;;6.60;;
39814;SDS011;25495;45.948;4.568;2022-12-07T17:04:44;11.02;;;5.13;;
39814;SDS011;25495;45.948;4.568;2022-12-07T17:07:10;10.43;;;5.70;;
39814;SDS011;25495;45.948;4.568;2022-12-07T17:09:36;12.90;;;6.50;;